sensor_id;sensor_type;location;lat;lon;timestamp;P1;durP1;ratioP1;P2;durP2;ratioP2
3959;SDS011;1994;48.640;8.894;2022-10-04T00:09:45;12.90;;;4.10;;
3959;SDS011;1994;48.640;8.894;2022-10-04T00:12:44;9.17;;;4.57;;
3959;SDS011;1994;48.640;8.894;2022-10-04T00:15:36;7.83;;;5.10;;
3959;SDS011;1994;48.640;8.894;2022-10-04T00:23:24;4.97;;;3.70;;
3959;SDS011;1994;48.640;8.894;2022-10-04T00:28:48;8.30;;;4.97;;
3959;SDS011;1994;48.640;8.894;2022-10-04T00:31:20;9.77;;;5.07;;
3959;SDS011;1994;48.640;8.894;2022-10-04T00:33:49;4.10;;;3.00;;
3959;SDS011;1994;48.640;8.894;2022-10-04T00:36:46;6.00;;;4.47;;
3959;SDS011;1994;48.640;8.894;2022-10-04T00:42:05;5.40;;;3.93;;
3959;SDS011;1994;48.640;8.894;2022-10-04T00:44:58;7.37;;;3.90;;
3959;SDS011;1994;48.640;8.894;2022-10-04T00:47:55;5.70;;;4.20;;
3959;SDS011;1994;48.640;8.894;2022-10-04T00:50:26;5.37;;;3.10;;
3959;SDS011;1994;48.640;8.894;2022-10-04T00:53:19;6.97;;;4.87;;
3959;SDS011;1994;48.640;8.894;2022-10-04T00:57:06;7.47;;;4.30;;
3959;SDS011;1994;48.640;8.894;2022-10-04T01:02:27;8.80;;;5.33;;
3959;SDS011;1994;48.640;8.894;2022-10-04T01:05:16;8.50;;;4.70;;
3959;SDS011;1994;48.640;8.894;2022-10-04T01:08:12;10.97;;;5.27;;
3959;SDS011;1994;48.640;8.894;2022-10-04T01:10:48;9.13;;;4.77;;
3959;SDS011;1994;48.640;8.894;2022-10-04T01:13:20;8.63;;;4.63;;
3959;SDS011;1994;48.640;8.894;2022-10-04T01:16:29;6.43;;;4.40;;
3959;SDS011;1994;48.640;8.894;2022-10-04T01:22:13;5.27;;;3.73;;
3959;SDS011;1994;48.640;8.894;2022-10-04T01:28:08;6.70;;;4.00;;
3959;SDS011;1994;48.640;8.894;2022-10-04T01:30:35;5.87;;;4.03;;
3959;SDS011;1994;48.640;8.894;2022-10-04T01:33:01;5.00;;;3.93;;
3959;SDS011;1994;48.640;8.894;2022-10-04T01:35:27;11.70;;;6.13;;
3959;SDS011;1994;48.640;8.894;2022-10-04T01:37:53;6.73;;;4.20;;
3959;SDS011;1994;48.640;8.894;2022-10-04T01:40:19;6.50;;;4.43;;
3959;SDS011;1994;48.640;8.894;2022-10-04T01:42:48;6.97;;;4.40;;
3959;SDS011;1994;48.640;8.894;2022-10-04T01:47:51;17.40;;;5.20;;
3959;SDS011;1994;48.640;8.894;2022-10-04T01:53:19;12.43;;;4.60;;
3959;SDS011;1994;48.640;8.894;2022-10-04T01:56:07;8.30;;;4.80;;
3959;SDS011;1994;48.640;8.894;2022-10-04T01:58:42;10.50;;;5.10;;
3959;SDS011;1994;48.640;8.894;2022-10-04T02:01:24;7.60;;;4.90;;
3959;SDS011;1994;48.640;8.894;2022-10-04T02:04:14;7.03;;;4.40;;
3959;SDS011;1994;48.640;8.894;2022-10-04T02:06:48;9.83;;;4.37;;
3959;SDS011;1994;48.640;8.894;2022-10-04T02:09:19;8.43;;;4.93;;
3959;SDS011;1994;48.640;8.894;2022-10-04T02:11:50;14.33;;;4.97;;
3959;SDS011;1994;48.640;8.894;2022-10-04T02:14:19;7.67;;;4.63;;
3959;SDS011;1994;48.640;8.894;2022-10-04T02:16:50;6.60;;;4.40;;
3959;SDS011;1994;48.640;8.894;2022-10-04T02:19:31;8.17;;;4.50;;
3959;SDS011;1994;48.640;8.894;2022-10-04T02:22:03;13.13;;;5.07;;
3959;SDS011;1994;48.640;8.894;2022-10-04T02:24:31;6.77;;;4.47;;
3959;SDS011;1994;48.640;8.894;2022-10-04T02:27:00;14.63;;;5.00;;
3959;SDS011;1994;48.640;8.894;2022-10-04T02:29:27;7.00;;;5.60;;
3959;SDS011;1994;48.640;8.894;2022-10-04T02:31:53;7.70;;;5.00;;
3959;SDS011;1994;48.640;8.894;2022-10-04T02:34:37;6.53;;;4.63;;
3959;SDS011;1994;48.640;8.894;2022-10-04T02:37:05;11.93;;;5.80;;
3959;SDS011;1994;48.640;8.894;2022-10-04T02:39:33;9.90;;;5.33;;
3959;SDS011;1994;48.640;8.894;2022-10-04T02:44:40;6.67;;;4.63;;
3959;SDS011;1994;48.640;8.894;2022-10-04T02:47:12;7.60;;;3.80;;
3959;SDS011;1994;48.640;8.894;2022-10-04T02:49:51;8.90;;;4.53;;
3959;SDS011;1994;48.640;8.894;2022-10-04T02:52:29;12.70;;;5.33;;
3959;SDS011;1994;48.640;8.894;2022-10-04T02:57:56;15.83;;;6.17;;
3959;SDS011;1994;48.640;8.894;2022-10-04T03:00:27;9.77;;;5.40;;
3959;SDS011;1994;48.640;8.894;2022-10-04T03:03:16;16.83;;;6.47;;
3959;SDS011;1994;48.640;8.894;2022-10-04T03:08:42;10.20;;;5.50;;
3959;SDS011;1994;48.640;8.894;2022-10-04T03:11:17;6.80;;;5.13;;
3959;SDS011;1994;48.640;8.894;2022-10-04T03:13:49;11.67;;;6.23;;
3959;SDS011;1994;48.640;8.894;2022-10-04T03:16:19;10.97;;;5.27;;
3959;SDS011;1994;48.640;8.894;2022-10-04T03:18:46;10.93;;;6.37;;
3959;SDS011;1994;48.640;8.894;2022-10-04T03:21:14;10.43;;;5.90;;
3959;SDS011;1994;48.640;8.894;2022-10-04T03:23:42;8.37;;;4.80;;
3959;SDS011;1994;48.640;8.894;2022-10-04T03:29:05;10.43;;;6.77;;
3959;SDS011;1994;48.640;8.894;2022-10-04T03:31:35;9.20;;;6.43;;
3959;SDS011;1994;48.640;8.894;2022-10-04T03:36:42;12.90;;;5.30;;
3959;SDS011;1994;48.640;8.894;2022-10-04T03:39:10;6.73;;;4.57;;
3959;SDS011;1994;48.640;8.894;2022-10-04T03:41:40;9.43;;;4.90;;
3959;SDS011;1994;48.640;8.894;2022-10-04T03:44:10;13.80;;;5.37;;
3959;SDS011;1994;48.640;8.894;2022-10-04T03:46:41;11.53;;;4.90;;
3959;SDS011;1994;48.640;8.894;2022-10-04T03:49:09;16.43;;;6.80;;
3959;SDS011;1994;48.640;8.894;2022-10-04T03:51:55;12.03;;;5.10;;
3959;SDS011;1994;48.640;8.894;2022-10-04T03:54:23;8.70;;;5.13;;
3959;SDS011;1994;48.640;8.894;2022-10-04T03:56:52;6.87;;;4.97;;
3959;SDS011;1994;48.640;8.894;2022-10-04T03:59:19;18.50;;;6.27;;
3959;SDS011;1994;48.640;8.894;2022-10-04T04:04:57;18.90;;;5.37;;
3959;SDS011;1994;48.640;8.894;2022-10-04T04:07:44;13.17;;;5.20;;
3959;SDS011;1994;48.640;8.894;2022-10-04T04:15:35;21.33;;;8.00;;
3959;SDS011;1994;48.640;8.894;2022-10-04T04:18:11;16.03;;;6.93;;
3959;SDS011;1994;48.640;8.894;2022-10-04T04:20:47;15.77;;;8.30;;
3959;SDS011;1994;48.640;8.894;2022-10-04T04:23:25;16.27;;;7.27;;
3959;SDS011;1994;48.640;8.894;2022-10-04T04:28:49;13.93;;;6.37;;
3959;SDS011;1994;48.640;8.894;2022-10-04T04:36:25;13.03;;;6.27;;
3959;SDS011;1994;48.640;8.894;2022-10-04T04:39:05;9.73;;;5.80;;
3959;SDS011;1994;48.640;8.894;2022-10-04T04:42:05;10.37;;;4.23;;
3959;SDS011;1994;48.640;8.894;2022-10-04T04:44:35;8.73;;;5.63;;
3959;SDS011;1994;48.640;8.894;2022-10-04T04:47:24;15.77;;;6.17;;
3959;SDS011;1994;48.640;8.894;2022-10-04T04:50:05;8.50;;;5.67;;
3959;SDS011;1994;48.640;8.894;2022-10-04T04:53:04;9.30;;;6.43;;
3959;SDS011;1994;48.640;8.894;2022-10-04T04:55:41;22.33;;;6.40;;
3959;SDS011;1994;48.640;8.894;2022-10-04T04:58:21;21.53;;;6.30;;
3959;SDS011;1994;48.640;8.894;2022-10-04T05:03:42;10.80;;;6.00;;
3959;SDS011;1994;48.640;8.894;2022-10-04T05:11:49;12.30;;;5.80;;
3959;SDS011;1994;48.640;8.894;2022-10-04T05:14:20;15.67;;;5.90;;
3959;SDS011;1994;48.640;8.894;2022-10-04T05:16:52;8.13;;;6.03;;
3959;SDS011;1994;48.640;8.894;2022-10-04T05:19:23;9.07;;;6.37;;
3959;SDS011;1994;48.640;8.894;2022-10-04T05:22:18;14.40;;;5.93;;
3959;SDS011;1994;48.640;8.894;2022-10-04T05:24:49;10.43;;;5.87;;
3959;SDS011;1994;48.640;8.894;2022-10-04T05:27:28;8.77;;;5.30;;
3959;SDS011;1994;48.640;8.894;2022-10-04T05:30:07;9.40;;;5.50;;
3959;SDS011;1994;48.640;8.894;2022-10-04T05:33:00;13.00;;;5.63;;
3959;SDS011;1994;48.640;8.894;2022-10-04T05:35:45;11.10;;;6.23;;
3959;SDS011;1994;48.640;8.894;2022-10-04T05:41:29;9.43;;;4.83;;
3959;SDS011;1994;48.640;8.894;2022-10-04T05:44:25;9.03;;;4.57;;
3959;SDS011;1994;48.640;8.894;2022-10-04T05:46:58;11.00;;;5.97;;
3959;SDS011;1994;48.640;8.894;2022-10-04T05:49:27;11.10;;;5.40;;
3959;SDS011;1994;48.640;8.894;2022-10-04T05:51:59;7.27;;;5.00;;
3959;SDS011;1994;48.640;8.894;2022-10-04T05:54:33;7.33;;;4.97;;
3959;SDS011;1994;48.640;8.894;2022-10-04T05:57:16;9.33;;;4.80;;
3959;SDS011;1994;48.640;8.894;2022-10-04T06:00:15;8.57;;;5.73;;
3959;SDS011;1994;48.640;8.894;2022-10-04T06:06:11;9.63;;;5.27;;
3959;SDS011;1994;48.640;8.894;2022-10-04T06:09:03;6.87;;;4.30;;
3959;SDS011;1994;48.640;8.894;2022-10-04T06:23:47;7.10;;;4.80;;
3959;SDS011;1994;48.640;8.894;2022-10-04T06:26:41;6.80;;;4.77;;
3959;SDS011;1994;48.640;8.894;2022-10-04T06:29:16;7.37;;;5.10;;
3959;SDS011;1994;48.640;8.894;2022-10-04T06:31:54;9.33;;;5.10;;
3959;SDS011;1994;48.640;8.894;2022-10-04T07:03:38;5.87;;;4.83;;
3959;SDS011;1994;48.640;8.894;2022-10-04T07:06:13;7.90;;;5.07;;
3959;SDS011;1994;48.640;8.894;2022-10-04T07:08:47;7.60;;;4.83;;
3959;SDS011;1994;48.640;8.894;2022-10-04T07:16:33;12.70;;;5.63;;
3959;SDS011;1994;48.640;8.894;2022-10-04T07:19:26;10.27;;;6.03;;
3959;SDS011;1994;48.640;8.894;2022-10-04T07:27:16;9.77;;;6.47;;
3959;SDS011;1994;48.640;8.894;2022-10-04T07:30:42;12.57;;;6.77;;
3959;SDS011;1994;48.640;8.894;2022-10-04T07:33:17;11.40;;;6.00;;
3959;SDS011;1994;48.640;8.894;2022-10-04T07:36:07;13.93;;;6.67;;
3959;SDS011;1994;48.640;8.894;2022-10-04T07:38:47;13.23;;;6.17;;
3959;SDS011;1994;48.640;8.894;2022-10-04T07:41:21;11.43;;;6.33;;
3959;SDS011;1994;48.640;8.894;2022-10-04T07:44:13;12.50;;;7.07;;
3959;SDS011;1994;48.640;8.894;2022-10-04T07:49:39;12.87;;;6.90;;
3959;SDS011;1994;48.640;8.894;2022-10-04T07:52:14;12.13;;;7.93;;
3959;SDS011;1994;48.640;8.894;2022-10-04T07:55:12;16.40;;;7.80;;
3959;SDS011;1994;48.640;8.894;2022-10-04T08:06:37;13.57;;;7.60;;
3959;SDS011;1994;48.640;8.894;2022-10-04T08:26:51;9.70;;;6.53;;
3959;SDS011;1994;48.640;8.894;2022-10-04T08:29:47;12.60;;;6.70;;
3959;SDS011;1994;48.640;8.894;2022-10-04T08:38:32;12.97;;;6.90;;
3959;SDS011;1994;48.640;8.894;2022-10-04T08:53:44;9.57;;;6.90;;
3959;SDS011;1994;48.640;8.894;2022-10-04T08:59:59;10.17;;;6.60;;
3959;SDS011;1994;48.640;8.894;2022-10-04T09:05:55;10.23;;;5.83;;
3959;SDS011;1994;48.640;8.894;2022-10-04T09:48:50;6.10;;;4.37;;
3959;SDS011;1994;48.640;8.894;2022-10-04T09:52:00;5.50;;;5.00;;
3959;SDS011;1994;48.640;8.894;2022-10-04T09:55:14;12.60;;;4.80;;
3959;SDS011;1994;48.640;8.894;2022-10-04T10:01:33;5.60;;;4.30;;
3959;SDS011;1994;48.640;8.894;2022-10-04T10:14:32;6.13;;;4.40;;
3959;SDS011;1994;48.640;8.894;2022-10-04T10:47:36;7.60;;;4.87;;
3959;SDS011;1994;48.640;8.894;2022-10-04T10:56:37;5.47;;;3.67;;
3959;SDS011;1994;48.640;8.894;2022-10-04T11:02:53;6.23;;;3.67;;
3959;SDS011;1994;48.640;8.894;2022-10-04T11:18:06;3.93;;;3.10;;
3959;SDS011;1994;48.640;8.894;2022-10-04T11:43:44;2.10;;;2.00;;
3959;SDS011;1994;48.640;8.894;2022-10-04T11:52:44;4.40;;;2.97;;
3959;SDS011;1994;48.640;8.894;2022-10-04T12:10:42;3.80;;;2.70;;
3959;SDS011;1994;48.640;8.894;2022-10-04T12:25:48;3.43;;;2.77;;
3959;SDS011;1994;48.640;8.894;2022-10-04T12:31:58;6.50;;;3.10;;
3959;SDS011;1994;48.640;8.894;2022-10-04T12:34:36;3.00;;;2.17;;
3959;SDS011;1994;48.640;8.894;2022-10-04T12:37:23;3.27;;;2.57;;
3959;SDS011;1994;48.640;8.894;2022-10-04T12:40:18;3.40;;;2.90;;
3959;SDS011;1994;48.640;8.894;2022-10-04T12:46:15;2.60;;;2.40;;
3959;SDS011;1994;48.640;8.894;2022-10-04T12:52:20;3.30;;;2.53;;
3959;SDS011;1994;48.640;8.894;2022-10-04T12:58:15;4.23;;;2.87;;
3959;SDS011;1994;48.640;8.894;2022-10-04T13:01:13;2.53;;;2.33;;
3959;SDS011;1994;48.640;8.894;2022-10-04T13:06:45;4.70;;;2.47;;
3959;SDS011;1994;48.640;8.894;2022-10-04T13:27:50;3.67;;;2.80;;
3959;SDS011;1994;48.640;8.894;2022-10-04T13:31:04;3.80;;;2.67;;
3959;SDS011;1994;48.640;8.894;2022-10-04T13:39:56;3.20;;;2.20;;
3959;SDS011;1994;48.640;8.894;2022-10-04T13:46:10;5.40;;;3.60;;
3959;SDS011;1994;48.640;8.894;2022-10-04T14:10:20;2.80;;;2.40;;
3959;SDS011;1994;48.640;8.894;2022-10-04T14:19:00;2.60;;;2.23;;
3959;SDS011;1994;48.640;8.894;2022-10-04T14:22:21;2.40;;;2.20;;
3959;SDS011;1994;48.640;8.894;2022-10-04T14:46:22;1.70;;;1.60;;
3959;SDS011;1994;48.640;8.894;2022-10-04T14:54:48;2.50;;;2.30;;
3959;SDS011;1994;48.640;8.894;2022-10-04T14:57:39;4.53;;;2.37;;
3959;SDS011;1994;48.640;8.894;2022-10-04T15:00:22;2.93;;;2.10;;
3959;SDS011;1994;48.640;8.894;2022-10-04T15:03:30;2.30;;;2.10;;
3959;SDS011;1994;48.640;8.894;2022-10-04T15:06:48;2.20;;;2.00;;
3959;SDS011;1994;48.640;8.894;2022-10-04T15:54:09;3.63;;;2.57;;
3959;SDS011;1994;48.640;8.894;2022-10-04T15:57:19;3.73;;;3.40;;
3959;SDS011;1994;48.640;8.894;2022-10-04T16:05:33;5.00;;;3.40;;
3959;SDS011;1994;48.640;8.894;2022-10-04T16:16:53;3.87;;;3.03;;
3959;SDS011;1994;48.640;8.894;2022-10-04T16:22:38;6.37;;;4.00;;
3959;SDS011;1994;48.640;8.894;2022-10-04T16:30:33;4.03;;;3.63;;
3959;SDS011;1994;48.640;8.894;2022-10-04T16:33:22;3.33;;;3.03;;
3959;SDS011;1994;48.640;8.894;2022-10-04T16:36:08;5.50;;;3.13;;
3959;SDS011;1994;48.640;8.894;2022-10-04T16:38:55;3.27;;;3.03;;
3959;SDS011;1994;48.640;8.894;2022-10-04T16:41:57;7.30;;;3.30;;
3959;SDS011;1994;48.640;8.894;2022-10-04T16:44:36;10.07;;;3.90;;
3959;SDS011;1994;48.640;8.894;2022-10-04T16:47:30;3.40;;;2.90;;
3959;SDS011;1994;48.640;8.894;2022-10-04T16:50:04;6.63;;;3.20;;
3959;SDS011;1994;48.640;8.894;2022-10-04T16:52:43;31.60;;;9.33;;
3959;SDS011;1994;48.640;8.894;2022-10-04T16:55:22;17.27;;;9.63;;
3959;SDS011;1994;48.640;8.894;2022-10-04T17:01:18;9.00;;;4.30;;
3959;SDS011;1994;48.640;8.894;2022-10-04T17:06:50;3.70;;;3.20;;
3959;SDS011;1994;48.640;8.894;2022-10-04T17:09:31;3.80;;;2.80;;
3959;SDS011;1994;48.640;8.894;2022-10-04T17:18:15;7.60;;;3.20;;
3959;SDS011;1994;48.640;8.894;2022-10-04T17:21:27;8.40;;;3.60;;
3959;SDS011;1994;48.640;8.894;2022-10-04T17:27:42;4.13;;;3.50;;
3959;SDS011;1994;48.640;8.894;2022-10-04T17:30:20;4.60;;;3.60;;
3959;SDS011;1994;48.640;8.894;2022-10-04T17:41:38;10.27;;;5.90;;
3959;SDS011;1994;48.640;8.894;2022-10-04T17:47:18;10.87;;;7.93;;
3959;SDS011;1994;48.640;8.894;2022-10-04T17:50:39;10.60;;;9.17;;
3959;SDS011;1994;48.640;8.894;2022-10-04T17:53:48;15.43;;;9.73;;
3959;SDS011;1994;48.640;8.894;2022-10-04T17:56:41;19.60;;;10.50;;
3959;SDS011;1994;48.640;8.894;2022-10-04T17:59:41;15.97;;;9.90;;
3959;SDS011;1994;48.640;8.894;2022-10-04T18:10:47;13.57;;;7.77;;
3959;SDS011;1994;48.640;8.894;2022-10-04T18:13:29;8.13;;;5.60;;
3959;SDS011;1994;48.640;8.894;2022-10-04T18:16:48;9.40;;;5.67;;
3959;SDS011;1994;48.640;8.894;2022-10-04T18:19:42;8.70;;;5.40;;
3959;SDS011;1994;48.640;8.894;2022-10-04T18:24:48;7.70;;;5.67;;
3959;SDS011;1994;48.640;8.894;2022-10-04T18:28:00;6.77;;;5.10;;
3959;SDS011;1994;48.640;8.894;2022-10-04T18:33:55;5.37;;;4.73;;
3959;SDS011;1994;48.640;8.894;2022-10-04T18:36:07;8.53;;;6.20;;
3959;SDS011;1994;48.640;8.894;2022-10-04T18:38:44;10.40;;;4.80;;
3959;SDS011;1994;48.640;8.894;2022-10-04T18:41:24;7.37;;;5.10;;
3959;SDS011;1994;48.640;8.894;2022-10-04T18:44:20;5.57;;;4.63;;
3959;SDS011;1994;48.640;8.894;2022-10-04T18:49:54;6.97;;;5.50;;
3959;SDS011;1994;48.640;8.894;2022-10-04T18:52:42;16.37;;;5.10;;
3959;SDS011;1994;48.640;8.894;2022-10-04T18:56:03;5.57;;;4.63;;
3959;SDS011;1994;48.640;8.894;2022-10-04T19:01:47;11.23;;;6.60;;
3959;SDS011;1994;48.640;8.894;2022-10-04T19:07:17;19.47;;;10.07;;
3959;SDS011;1994;48.640;8.894;2022-10-04T19:19:02;13.70;;;8.13;;
3959;SDS011;1994;48.640;8.894;2022-10-04T19:22:15;13.03;;;7.27;;
3959;SDS011;1994;48.640;8.894;2022-10-04T19:28:03;9.30;;;6.20;;
3959;SDS011;1994;48.640;8.894;2022-10-04T19:33:53;14.00;;;9.97;;
3959;SDS011;1994;48.640;8.894;2022-10-04T19:48:47;14.77;;;7.20;;
3959;SDS011;1994;48.640;8.894;2022-10-04T19:51:27;9.70;;;7.20;;
3959;SDS011;1994;48.640;8.894;2022-10-04T19:54:07;13.00;;;7.17;;
3959;SDS011;1994;48.640;8.894;2022-10-04T19:56:42;10.57;;;7.47;;
3959;SDS011;1994;48.640;8.894;2022-10-04T19:59:16;11.83;;;7.67;;
3959;SDS011;1994;48.640;8.894;2022-10-04T20:01:50;10.80;;;7.13;;
3959;SDS011;1994;48.640;8.894;2022-10-04T20:04:17;12.50;;;6.10;;
3959;SDS011;1994;48.640;8.894;2022-10-04T20:07:06;14.00;;;7.10;;
3959;SDS011;1994;48.640;8.894;2022-10-04T20:17:42;14.80;;;8.73;;
3959;SDS011;1994;48.640;8.894;2022-10-04T20:20:12;13.00;;;6.90;;
3959;SDS011;1994;48.640;8.894;2022-10-04T20:23:07;17.93;;;7.20;;
3959;SDS011;1994;48.640;8.894;2022-10-04T20:30:51;13.33;;;7.20;;
3959;SDS011;1994;48.640;8.894;2022-10-04T20:38:42;6.83;;;5.60;;
3959;SDS011;1994;48.640;8.894;2022-10-04T20:44:13;8.00;;;5.23;;
3959;SDS011;1994;48.640;8.894;2022-10-04T20:47:19;7.27;;;6.00;;
3959;SDS011;1994;48.640;8.894;2022-10-04T20:53:26;12.30;;;7.80;;
3959;SDS011;1994;48.640;8.894;2022-10-04T20:58:55;10.70;;;6.63;;
3959;SDS011;1994;48.640;8.894;2022-10-04T21:01:33;10.63;;;7.07;;
3959;SDS011;1994;48.640;8.894;2022-10-04T21:04:19;11.80;;;8.07;;
3959;SDS011;1994;48.640;8.894;2022-10-04T21:06:59;10.20;;;6.83;;
3959;SDS011;1994;48.640;8.894;2022-10-04T21:09:31;11.40;;;7.50;;
3959;SDS011;1994;48.640;8.894;2022-10-04T21:11:59;14.13;;;6.73;;
3959;SDS011;1994;48.640;8.894;2022-10-04T21:14:27;9.40;;;6.73;;
3959;SDS011;1994;48.640;8.894;2022-10-04T21:17:02;16.33;;;6.83;;
3959;SDS011;1994;48.640;8.894;2022-10-04T21:19:49;13.17;;;7.03;;
3959;SDS011;1994;48.640;8.894;2022-10-04T21:27:08;11.50;;;6.40;;
3959;SDS011;1994;48.640;8.894;2022-10-04T21:29:37;11.40;;;7.20;;
3959;SDS011;1994;48.640;8.894;2022-10-04T21:32:04;9.57;;;7.33;;
3959;SDS011;1994;48.640;8.894;2022-10-04T21:34:30;14.60;;;6.80;;
3959;SDS011;1994;48.640;8.894;2022-10-04T21:36:56;13.33;;;7.20;;
3959;SDS011;1994;48.640;8.894;2022-10-04T21:39:25;11.83;;;7.33;;
3959;SDS011;1994;48.640;8.894;2022-10-04T21:41:50;11.00;;;7.43;;
3959;SDS011;1994;48.640;8.894;2022-10-04T21:44:16;10.13;;;7.00;;
3959;SDS011;1994;48.640;8.894;2022-10-04T21:46:42;13.97;;;7.23;;
3959;SDS011;1994;48.640;8.894;2022-10-04T21:49:08;8.97;;;6.53;;
3959;SDS011;1994;48.640;8.894;2022-10-04T21:51:34;10.03;;;7.00;;
3959;SDS011;1994;48.640;8.894;2022-10-04T21:54:04;9.60;;;6.40;;
3959;SDS011;1994;48.640;8.894;2022-10-04T21:56:31;14.40;;;8.83;;
3959;SDS011;1994;48.640;8.894;2022-10-04T21:58:57;12.70;;;7.37;;
3959;SDS011;1994;48.640;8.894;2022-10-04T22:01:23;15.13;;;7.93;;
3959;SDS011;1994;48.640;8.894;2022-10-04T22:03:49;11.67;;;7.40;;
3959;SDS011;1994;48.640;8.894;2022-10-04T22:06:15;16.97;;;7.90;;
3959;SDS011;1994;48.640;8.894;2022-10-04T22:08:41;13.13;;;8.10;;
3959;SDS011;1994;48.640;8.894;2022-10-04T22:11:07;8.20;;;6.47;;
3959;SDS011;1994;48.640;8.894;2022-10-04T22:13:34;12.10;;;6.90;;
3959;SDS011;1994;48.640;8.894;2022-10-04T22:16:00;10.47;;;7.67;;
3959;SDS011;1994;48.640;8.894;2022-10-04T22:18:27;12.97;;;7.83;;
3959;SDS011;1994;48.640;8.894;2022-10-04T22:20:53;11.03;;;8.60;;
3959;SDS011;1994;48.640;8.894;2022-10-04T22:23:20;11.57;;;7.50;;
3959;SDS011;1994;48.640;8.894;2022-10-04T22:25:50;11.23;;;7.57;;
3959;SDS011;1994;48.640;8.894;2022-10-04T22:28:22;10.33;;;7.30;;
3959;SDS011;1994;48.640;8.894;2022-10-04T22:30:49;15.17;;;8.00;;
3959;SDS011;1994;48.640;8.894;2022-10-04T22:36:11;10.83;;;7.97;;
3959;SDS011;1994;48.640;8.894;2022-10-04T22:41:25;17.30;;;7.13;;
3959;SDS011;1994;48.640;8.894;2022-10-04T22:43:58;10.17;;;8.00;;
3959;SDS011;1994;48.640;8.894;2022-10-04T22:46:52;12.10;;;6.83;;
3959;SDS011;1994;48.640;8.894;2022-10-04T22:49:24;11.80;;;7.40;;
3959;SDS011;1994;48.640;8.894;2022-10-04T22:51:54;14.77;;;7.40;;
3959;SDS011;1994;48.640;8.894;2022-10-04T22:54:26;11.60;;;7.43;;
3959;SDS011;1994;48.640;8.894;2022-10-04T22:56:56;10.90;;;7.70;;
3959;SDS011;1994;48.640;8.894;2022-10-04T22:59:26;16.47;;;7.33;;
3959;SDS011;1994;48.640;8.894;2022-10-04T23:05:35;12.07;;;7.30;;
3959;SDS011;1994;48.640;8.894;2022-10-04T23:07:54;10.40;;;7.50;;
3959;SDS011;1994;48.640;8.894;2022-10-04T23:10:19;11.10;;;7.10;;
3959;SDS011;1994;48.640;8.894;2022-10-04T23:12:46;13.90;;;8.80;;
3959;SDS011;1994;48.640;8.894;2022-10-04T23:15:18;11.63;;;8.20;;
3959;SDS011;1994;48.640;8.894;2022-10-04T23:17:46;13.13;;;8.70;;
3959;SDS011;1994;48.640;8.894;2022-10-04T23:20:19;14.03;;;7.87;;
3959;SDS011;1994;48.640;8.894;2022-10-04T23:22:47;11.63;;;7.93;;
3959;SDS011;1994;48.640;8.894;2022-10-04T23:25:17;14.67;;;8.17;;
3959;SDS011;1994;48.640;8.894;2022-10-04T23:27:53;12.40;;;8.50;;
3959;SDS011;1994;48.640;8.894;2022-10-04T23:30:25;15.10;;;8.93;;
3959;SDS011;1994;48.640;8.894;2022-10-04T23:32:52;14.40;;;8.53;;
3959;SDS011;1994;48.640;8.894;2022-10-04T23:35:25;12.93;;;8.10;;
3959;SDS011;1994;48.640;8.894;2022-10-04T23:37:57;13.80;;;8.53;;
3959;SDS011;1994;48.640;8.894;2022-10-04T23:40:30;12.67;;;8.47;;
3959;SDS011;1994;48.640;8.894;2022-10-04T23:42:56;13.73;;;8.57;;
3959;SDS011;1994;48.640;8.894;2022-10-04T23:45:26;16.43;;;8.23;;
3959;SDS011;1994;48.640;8.894;2022-10-04T23:47:53;11.13;;;7.80;;
3959;SDS011;1994;48.640;8.894;2022-10-04T23:50:23;19.90;;;8.97;;
3959;SDS011;1994;48.640;8.894;2022-10-04T23:52:57;12.70;;;9.00;;
3959;SDS011;1994;48.640;8.894;2022-10-04T23:55:35;18.97;;;9.27;;
3959;SDS011;1994;48.640;8.894;2022-10-04T23:58:05;13.43;;;8.60;;
